Aviation Digital Data Service (ADDS)

Output produced by METARs form (0143 UTC 27 May 2015)
found at http://aviationweather.gov/adds/metars/
 
KBPT 270053Z 15008KT 10SM BKN035 BKN045 26/21 A3001 RMK AO2 SLP162 T02610211